Yvoir, Belgium
Current Conditions -  °F | °C
As of 4:25 PM on Friday 19 Dec 2014 (Local Time) from EBFS Reporting Station
Broken Clouds Broken Clouds  
Wind Chill: 42°   Ceiling: 1100
Heat Index: 46°   Visibility: 6mi
Dew Point: 45°   Wind: 8mph
Humidity: 93%   Direction: 280°W
Pressure: 30"   Gusts: NA
Location:  50.33°N, 4.88°E
Report Text: EBFS 191525Z AUTO 28007KT 9999 FEW006/// BKN011/// BKN017/// 08/07 Q1016 GRN
Loading
Personal Weather Stations






























Interactive Weather Map New forecast layout! Learn more

10-Day Weather Forecast

Advertisements
Track Severe Weather on mobile